sensor_id;sensor_type;location;lat;lon;timestamp;P1;durP1;ratioP1;P2;durP2;ratioP2
6723;SDS011;3399;52.530;13.304;2022-11-20T00:00:50;13.17;;;9.90;;
6723;SDS011;3399;52.530;13.304;2022-11-20T00:03:16;12.27;;;8.90;;
6723;SDS011;3399;52.530;13.304;2022-11-20T00:05:43;12.33;;;9.87;;
6723;SDS011;3399;52.530;13.304;2022-11-20T00:08:09;11.43;;;8.77;;
6723;SDS011;3399;52.530;13.304;2022-11-20T00:10:38;12.40;;;9.17;;
6723;SDS011;3399;52.530;13.304;2022-11-20T00:13:04;12.33;;;8.63;;
6723;SDS011;3399;52.530;13.304;2022-11-20T00:15:30;12.77;;;9.53;;
6723;SDS011;3399;52.530;13.304;2022-11-20T00:17:56;13.83;;;10.00;;
6723;SDS011;3399;52.530;13.304;2022-11-20T00:20:21;13.40;;;9.30;;
6723;SDS011;3399;52.530;13.304;2022-11-20T00:22:47;13.63;;;9.53;;
6723;SDS011;3399;52.530;13.304;2022-11-20T00:25:14;10.63;;;8.03;;
6723;SDS011;3399;52.530;13.304;2022-11-20T00:27:39;11.77;;;9.57;;
6723;SDS011;3399;52.530;13.304;2022-11-20T00:30:05;12.00;;;8.63;;
6723;SDS011;3399;52.530;13.304;2022-11-20T00:32:31;11.27;;;8.37;;
6723;SDS011;3399;52.530;13.304;2022-11-20T00:34:56;13.10;;;9.43;;
6723;SDS011;3399;52.530;13.304;2022-11-20T00:37:22;10.30;;;8.77;;
6723;SDS011;3399;52.530;13.304;2022-11-20T00:39:47;11.70;;;8.97;;
6723;SDS011;3399;52.530;13.304;2022-11-20T00:42:13;15.23;;;8.97;;
6723;SDS011;3399;52.530;13.304;2022-11-20T00:44:38;12.33;;;9.13;;
6723;SDS011;3399;52.530;13.304;2022-11-20T00:47:04;11.23;;;9.27;;
6723;SDS011;3399;52.530;13.304;2022-11-20T00:49:29;12.73;;;9.30;;
6723;SDS011;3399;52.530;13.304;2022-11-20T00:51:55;13.17;;;8.93;;
6723;SDS011;3399;52.530;13.304;2022-11-20T00:54:20;13.17;;;9.43;;
6723;SDS011;3399;52.530;13.304;2022-11-20T00:56:46;12.60;;;9.07;;
6723;SDS011;3399;52.530;13.304;2022-11-20T00:59:11;13.10;;;9.40;;
6723;SDS011;3399;52.530;13.304;2022-11-20T01:01:37;11.73;;;8.83;;
6723;SDS011;3399;52.530;13.304;2022-11-20T01:04:03;12.57;;;8.93;;
6723;SDS011;3399;52.530;13.304;2022-11-20T01:06:33;11.43;;;8.80;;
6723;SDS011;3399;52.530;13.304;2022-11-20T01:09:00;12.27;;;9.30;;
6723;SDS011;3399;52.530;13.304;2022-11-20T01:11:35;15.57;;;9.00;;
6723;SDS011;3399;52.530;13.304;2022-11-20T01:14:04;11.70;;;9.27;;
6723;SDS011;3399;52.530;13.304;2022-11-20T01:16:33;10.37;;;8.37;;
6723;SDS011;3399;52.530;13.304;2022-11-20T01:19:02;10.93;;;8.87;;
6723;SDS011;3399;52.530;13.304;2022-11-20T01:21:31;11.80;;;8.80;;
6723;SDS011;3399;52.530;13.304;2022-11-20T01:23:58;13.90;;;9.10;;
6723;SDS011;3399;52.530;13.304;2022-11-20T01:26:25;12.60;;;9.83;;
6723;SDS011;3399;52.530;13.304;2022-11-20T01:28:53;12.63;;;9.37;;
6723;SDS011;3399;52.530;13.304;2022-11-20T01:31:20;13.07;;;9.60;;
6723;SDS011;3399;52.530;13.304;2022-11-20T01:33:55;8.13;;;7.07;;
6723;SDS011;3399;52.530;13.304;2022-11-20T01:36:22;9.67;;;8.67;;
6723;SDS011;3399;52.530;13.304;2022-11-20T01:38:53;11.07;;;8.23;;
6723;SDS011;3399;52.530;13.304;2022-11-20T01:41:20;9.77;;;8.70;;
6723;SDS011;3399;52.530;13.304;2022-11-20T01:44:04;10.43;;;9.33;;
6723;SDS011;3399;52.530;13.304;2022-11-20T01:46:37;12.00;;;8.53;;
6723;SDS011;3399;52.530;13.304;2022-11-20T01:49:16;10.70;;;8.40;;
6723;SDS011;3399;52.530;13.304;2022-11-20T01:51:45;12.97;;;9.50;;
6723;SDS011;3399;52.530;13.304;2022-11-20T01:54:18;12.47;;;9.87;;
6723;SDS011;3399;52.530;13.304;2022-11-20T01:56:48;13.27;;;10.07;;
6723;SDS011;3399;52.530;13.304;2022-11-20T01:59:17;13.60;;;11.47;;
6723;SDS011;3399;52.530;13.304;2022-11-20T02:01:44;12.60;;;9.30;;
6723;SDS011;3399;52.530;13.304;2022-11-20T02:04:09;16.07;;;10.70;;
6723;SDS011;3399;52.530;13.304;2022-11-20T02:06:38;13.63;;;10.37;;
6723;SDS011;3399;52.530;13.304;2022-11-20T02:09:14;11.90;;;9.63;;
6723;SDS011;3399;52.530;13.304;2022-11-20T02:11:41;12.17;;;9.10;;
6723;SDS011;3399;52.530;13.304;2022-11-20T02:14:07;13.20;;;10.63;;
6723;SDS011;3399;52.530;13.304;2022-11-20T02:16:35;14.70;;;10.97;;
6723;SDS011;3399;52.530;13.304;2022-11-20T02:19:05;11.70;;;9.40;;
6723;SDS011;3399;52.530;13.304;2022-11-20T02:21:37;14.30;;;9.93;;
6723;SDS011;3399;52.530;13.304;2022-11-20T02:24:15;11.90;;;10.57;;
6723;SDS011;3399;52.530;13.304;2022-11-20T02:26:54;19.43;;;10.43;;
6723;SDS011;3399;52.530;13.304;2022-11-20T02:29:29;14.73;;;10.97;;
6723;SDS011;3399;52.530;13.304;2022-11-20T02:32:00;12.47;;;9.50;;
6723;SDS011;3399;52.530;13.304;2022-11-20T02:34:27;18.33;;;12.00;;
6723;SDS011;3399;52.530;13.304;2022-11-20T02:36:53;14.73;;;10.43;;
6723;SDS011;3399;52.530;13.304;2022-11-20T02:39:20;13.80;;;9.77;;
6723;SDS011;3399;52.530;13.304;2022-11-20T02:41:49;13.67;;;11.47;;
6723;SDS011;3399;52.530;13.304;2022-11-20T02:44:17;16.07;;;10.37;;
6723;SDS011;3399;52.530;13.304;2022-11-20T02:46:43;19.13;;;10.70;;
6723;SDS011;3399;52.530;13.304;2022-11-20T02:49:09;14.47;;;10.30;;
6723;SDS011;3399;52.530;13.304;2022-11-20T02:51:35;14.60;;;10.50;;
6723;SDS011;3399;52.530;13.304;2022-11-20T02:54:00;15.63;;;12.37;;
6723;SDS011;3399;52.530;13.304;2022-11-20T02:56:26;22.00;;;11.17;;
6723;SDS011;3399;52.530;13.304;2022-11-20T02:58:53;12.60;;;10.93;;
6723;SDS011;3399;52.530;13.304;2022-11-20T03:01:19;11.73;;;9.40;;
6723;SDS011;3399;52.530;13.304;2022-11-20T03:03:44;16.90;;;11.50;;
6723;SDS011;3399;52.530;13.304;2022-11-20T03:06:14;20.63;;;12.07;;
6723;SDS011;3399;52.530;13.304;2022-11-20T03:08:40;14.90;;;12.37;;
6723;SDS011;3399;52.530;13.304;2022-11-20T03:11:10;14.27;;;10.60;;
6723;SDS011;3399;52.530;13.304;2022-11-20T03:13:35;20.63;;;13.23;;
6723;SDS011;3399;52.530;13.304;2022-11-20T03:16:05;15.50;;;11.50;;
6723;SDS011;3399;52.530;13.304;2022-11-20T03:18:33;16.37;;;12.23;;
6723;SDS011;3399;52.530;13.304;2022-11-20T03:20:58;18.00;;;11.57;;
6723;SDS011;3399;52.530;13.304;2022-11-20T03:23:24;15.40;;;11.77;;
6723;SDS011;3399;52.530;13.304;2022-11-20T03:25:50;14.57;;;11.40;;
6723;SDS011;3399;52.530;13.304;2022-11-20T03:28:16;16.43;;;11.67;;
6723;SDS011;3399;52.530;13.304;2022-11-20T03:30:41;17.07;;;10.57;;
6723;SDS011;3399;52.530;13.304;2022-11-20T03:33:07;19.27;;;13.20;;
6723;SDS011;3399;52.530;13.304;2022-11-20T03:35:32;15.90;;;11.20;;
6723;SDS011;3399;52.530;13.304;2022-11-20T03:37:58;14.63;;;11.80;;
6723;SDS011;3399;52.530;13.304;2022-11-20T03:40:23;15.70;;;11.87;;
6723;SDS011;3399;52.530;13.304;2022-11-20T03:42:49;13.17;;;10.83;;
6723;SDS011;3399;52.530;13.304;2022-11-20T03:45:15;14.80;;;12.27;;
6723;SDS011;3399;52.530;13.304;2022-11-20T03:47:42;16.70;;;10.63;;
6723;SDS011;3399;52.530;13.304;2022-11-20T03:50:09;14.93;;;10.77;;
6723;SDS011;3399;52.530;13.304;2022-11-20T03:52:37;15.50;;;11.33;;
6723;SDS011;3399;52.530;13.304;2022-11-20T03:55:03;20.27;;;12.13;;
6723;SDS011;3399;52.530;13.304;2022-11-20T03:57:29;15.50;;;11.97;;
6723;SDS011;3399;52.530;13.304;2022-11-20T03:59:54;16.97;;;11.97;;
6723;SDS011;3399;52.530;13.304;2022-11-20T04:02:20;13.80;;;11.17;;
6723;SDS011;3399;52.530;13.304;2022-11-20T04:04:46;16.10;;;12.20;;
6723;SDS011;3399;52.530;13.304;2022-11-20T04:07:11;16.60;;;12.37;;
6723;SDS011;3399;52.530;13.304;2022-11-20T04:09:36;14.97;;;11.47;;
6723;SDS011;3399;52.530;13.304;2022-11-20T04:12:02;16.30;;;13.37;;
6723;SDS011;3399;52.530;13.304;2022-11-20T04:14:28;17.27;;;11.13;;
6723;SDS011;3399;52.530;13.304;2022-11-20T04:16:53;18.73;;;12.30;;
6723;SDS011;3399;52.530;13.304;2022-11-20T04:19:18;15.40;;;12.03;;
6723;SDS011;3399;52.530;13.304;2022-11-20T04:21:44;13.37;;;11.20;;
6723;SDS011;3399;52.530;13.304;2022-11-20T04:24:10;14.40;;;11.23;;
6723;SDS011;3399;52.530;13.304;2022-11-20T04:26:36;15.63;;;11.50;;
6723;SDS011;3399;52.530;13.304;2022-11-20T04:29:01;15.73;;;11.23;;
6723;SDS011;3399;52.530;13.304;2022-11-20T04:31:28;16.00;;;11.77;;
6723;SDS011;3399;52.530;13.304;2022-11-20T04:33:54;17.10;;;12.47;;
6723;SDS011;3399;52.530;13.304;2022-11-20T04:36:24;12.73;;;10.13;;
6723;SDS011;3399;52.530;13.304;2022-11-20T04:38:52;16.93;;;12.07;;
6723;SDS011;3399;52.530;13.304;2022-11-20T04:41:19;16.17;;;10.97;;
6723;SDS011;3399;52.530;13.304;2022-11-20T04:43:48;14.83;;;11.40;;
6723;SDS011;3399;52.530;13.304;2022-11-20T04:46:15;14.57;;;12.57;;
6723;SDS011;3399;52.530;13.304;2022-11-20T04:48:41;15.40;;;11.97;;
6723;SDS011;3399;52.530;13.304;2022-11-20T04:51:07;16.03;;;11.67;;
6723;SDS011;3399;52.530;13.304;2022-11-20T04:53:32;17.60;;;12.63;;
6723;SDS011;3399;52.530;13.304;2022-11-20T04:56:16;17.40;;;12.10;;
6723;SDS011;3399;52.530;13.304;2022-11-20T04:58:42;15.97;;;11.67;;
6723;SDS011;3399;52.530;13.304;2022-11-20T05:01:15;15.37;;;12.10;;
6723;SDS011;3399;52.530;13.304;2022-11-20T05:03:45;15.47;;;10.70;;
6723;SDS011;3399;52.530;13.304;2022-11-20T05:06:12;15.80;;;11.60;;
6723;SDS011;3399;52.530;13.304;2022-11-20T05:08:40;14.70;;;11.47;;
6723;SDS011;3399;52.530;13.304;2022-11-20T05:11:07;14.87;;;11.63;;
6723;SDS011;3399;52.530;13.304;2022-11-20T05:13:34;15.37;;;11.30;;
6723;SDS011;3399;52.530;13.304;2022-11-20T05:16:01;17.20;;;12.03;;
6723;SDS011;3399;52.530;13.304;2022-11-20T05:18:28;17.10;;;12.67;;
6723;SDS011;3399;52.530;13.304;2022-11-20T05:20:54;15.13;;;12.30;;
6723;SDS011;3399;52.530;13.304;2022-11-20T05:23:23;16.53;;;12.13;;
6723;SDS011;3399;52.530;13.304;2022-11-20T05:25:53;15.80;;;11.17;;
6723;SDS011;3399;52.530;13.304;2022-11-20T05:28:19;14.20;;;10.53;;
6723;SDS011;3399;52.530;13.304;2022-11-20T05:30:45;14.03;;;11.00;;
6723;SDS011;3399;52.530;13.304;2022-11-20T05:33:11;15.20;;;10.30;;
6723;SDS011;3399;52.530;13.304;2022-11-20T05:35:36;14.67;;;11.03;;
6723;SDS011;3399;52.530;13.304;2022-11-20T05:38:01;13.73;;;11.43;;
6723;SDS011;3399;52.530;13.304;2022-11-20T05:40:27;18.80;;;11.87;;
6723;SDS011;3399;52.530;13.304;2022-11-20T05:42:52;14.10;;;11.17;;
6723;SDS011;3399;52.530;13.304;2022-11-20T05:45:18;15.40;;;11.90;;
6723;SDS011;3399;52.530;13.304;2022-11-20T05:47:43;14.67;;;11.20;;
6723;SDS011;3399;52.530;13.304;2022-11-20T05:50:09;13.23;;;11.07;;
6723;SDS011;3399;52.530;13.304;2022-11-20T05:52:34;15.90;;;11.50;;
6723;SDS011;3399;52.530;13.304;2022-11-20T05:55:00;18.00;;;11.27;;
6723;SDS011;3399;52.530;13.304;2022-11-20T05:57:25;15.83;;;11.33;;
6723;SDS011;3399;52.530;13.304;2022-11-20T05:59:51;14.73;;;11.47;;
6723;SDS011;3399;52.530;13.304;2022-11-20T06:02:17;14.27;;;11.20;;
6723;SDS011;3399;52.530;13.304;2022-11-20T06:04:43;16.67;;;12.23;;
6723;SDS011;3399;52.530;13.304;2022-11-20T06:07:08;14.53;;;11.60;;
6723;SDS011;3399;52.530;13.304;2022-11-20T06:09:34;13.67;;;10.70;;
6723;SDS011;3399;52.530;13.304;2022-11-20T06:12:00;17.13;;;11.90;;
6723;SDS011;3399;52.530;13.304;2022-11-20T06:14:26;20.23;;;12.13;;
6723;SDS011;3399;52.530;13.304;2022-11-20T06:16:52;14.20;;;11.37;;
6723;SDS011;3399;52.530;13.304;2022-11-20T06:19:18;14.13;;;10.70;;
6723;SDS011;3399;52.530;13.304;2022-11-20T06:21:44;14.60;;;10.90;;
6723;SDS011;3399;52.530;13.304;2022-11-20T06:24:09;14.83;;;10.97;;
6723;SDS011;3399;52.530;13.304;2022-11-20T06:26:35;18.00;;;12.70;;
6723;SDS011;3399;52.530;13.304;2022-11-20T06:29:01;15.27;;;11.23;;
6723;SDS011;3399;52.530;13.304;2022-11-20T06:31:26;13.50;;;10.37;;
6723;SDS011;3399;52.530;13.304;2022-11-20T06:33:52;16.33;;;11.93;;
6723;SDS011;3399;52.530;13.304;2022-11-20T06:36:19;17.17;;;11.13;;
6723;SDS011;3399;52.530;13.304;2022-11-20T06:38:46;16.77;;;11.20;;
6723;SDS011;3399;52.530;13.304;2022-11-20T06:41:13;15.53;;;11.37;;
6723;SDS011;3399;52.530;13.304;2022-11-20T06:43:40;14.47;;;10.63;;
6723;SDS011;3399;52.530;13.304;2022-11-20T06:46:06;14.50;;;11.23;;
6723;SDS011;3399;52.530;13.304;2022-11-20T06:48:32;16.77;;;12.30;;
6723;SDS011;3399;52.530;13.304;2022-11-20T06:50:58;16.50;;;12.43;;
6723;SDS011;3399;52.530;13.304;2022-11-20T06:53:23;15.17;;;11.47;;
6723;SDS011;3399;52.530;13.304;2022-11-20T06:55:49;14.57;;;11.77;;
6723;SDS011;3399;52.530;13.304;2022-11-20T06:58:16;12.60;;;10.53;;
6723;SDS011;3399;52.530;13.304;2022-11-20T07:00:42;14.60;;;11.43;;
6723;SDS011;3399;52.530;13.304;2022-11-20T07:03:08;13.90;;;11.00;;
6723;SDS011;3399;52.530;13.304;2022-11-20T07:05:35;17.80;;;12.03;;
6723;SDS011;3399;52.530;13.304;2022-11-20T07:08:02;20.80;;;12.90;;
6723;SDS011;3399;52.530;13.304;2022-11-20T07:10:28;15.77;;;11.80;;
6723;SDS011;3399;52.530;13.304;2022-11-20T07:12:53;18.77;;;11.87;;
6723;SDS011;3399;52.530;13.304;2022-11-20T07:15:20;17.40;;;13.00;;
6723;SDS011;3399;52.530;13.304;2022-11-20T07:17:47;16.73;;;12.10;;
6723;SDS011;3399;52.530;13.304;2022-11-20T07:20:12;15.00;;;11.37;;
6723;SDS011;3399;52.530;13.304;2022-11-20T07:22:38;16.37;;;10.83;;
6723;SDS011;3399;52.530;13.304;2022-11-20T07:25:04;14.53;;;11.53;;
6723;SDS011;3399;52.530;13.304;2022-11-20T07:27:30;15.37;;;12.23;;
6723;SDS011;3399;52.530;13.304;2022-11-20T07:29:56;15.13;;;10.77;;
6723;SDS011;3399;52.530;13.304;2022-11-20T07:32:21;14.90;;;11.07;;
6723;SDS011;3399;52.530;13.304;2022-11-20T07:34:47;15.30;;;11.70;;
6723;SDS011;3399;52.530;13.304;2022-11-20T07:37:13;14.23;;;10.27;;
6723;SDS011;3399;52.530;13.304;2022-11-20T07:39:39;15.57;;;11.90;;
6723;SDS011;3399;52.530;13.304;2022-11-20T07:42:05;16.33;;;12.27;;
6723;SDS011;3399;52.530;13.304;2022-11-20T07:44:31;16.00;;;12.10;;
6723;SDS011;3399;52.530;13.304;2022-11-20T07:46:57;15.47;;;11.43;;
6723;SDS011;3399;52.530;13.304;2022-11-20T07:49:23;15.90;;;11.73;;
6723;SDS011;3399;52.530;13.304;2022-11-20T07:51:51;14.43;;;11.47;;
6723;SDS011;3399;52.530;13.304;2022-11-20T07:54:20;16.37;;;11.43;;
6723;SDS011;3399;52.530;13.304;2022-11-20T07:56:46;19.13;;;12.73;;
6723;SDS011;3399;52.530;13.304;2022-11-20T07:59:12;15.03;;;11.83;;
6723;SDS011;3399;52.530;13.304;2022-11-20T08:01:38;17.17;;;11.63;;
6723;SDS011;3399;52.530;13.304;2022-11-20T08:04:04;15.07;;;11.30;;
6723;SDS011;3399;52.530;13.304;2022-11-20T08:06:30;18.10;;;12.70;;
6723;SDS011;3399;52.530;13.304;2022-11-20T08:08:55;16.43;;;11.90;;
6723;SDS011;3399;52.530;13.304;2022-11-20T08:11:21;14.33;;;12.63;;
6723;SDS011;3399;52.530;13.304;2022-11-20T08:14:05;17.40;;;12.60;;
6723;SDS011;3399;52.530;13.304;2022-11-20T08:16:36;10.93;;;9.00;;
6723;SDS011;3399;52.530;13.304;2022-11-20T08:19:02;18.57;;;12.93;;
6723;SDS011;3399;52.530;13.304;2022-11-20T08:21:27;16.60;;;11.97;;
6723;SDS011;3399;52.530;13.304;2022-11-20T08:23:53;17.47;;;12.40;;
6723;SDS011;3399;52.530;13.304;2022-11-20T08:26:18;18.33;;;12.13;;
6723;SDS011;3399;52.530;13.304;2022-11-20T08:28:45;17.67;;;12.03;;
6723;SDS011;3399;52.530;13.304;2022-11-20T08:31:11;15.80;;;11.57;;
6723;SDS011;3399;52.530;13.304;2022-11-20T08:33:36;17.50;;;12.10;;
6723;SDS011;3399;52.530;13.304;2022-11-20T08:36:02;17.07;;;12.13;;
6723;SDS011;3399;52.530;13.304;2022-11-20T08:38:29;16.43;;;12.07;;
6723;SDS011;3399;52.530;13.304;2022-11-20T08:40:58;15.63;;;11.60;;
6723;SDS011;3399;52.530;13.304;2022-11-20T08:43:42;15.90;;;11.33;;
6723;SDS011;3399;52.530;13.304;2022-11-20T08:46:08;17.30;;;12.80;;
6723;SDS011;3399;52.530;13.304;2022-11-20T08:48:33;17.13;;;11.87;;
6723;SDS011;3399;52.530;13.304;2022-11-20T08:50:59;16.77;;;13.37;;
6723;SDS011;3399;52.530;13.304;2022-11-20T08:53:25;15.77;;;13.17;;
6723;SDS011;3399;52.530;13.304;2022-11-20T08:55:51;18.00;;;12.07;;
6723;SDS011;3399;52.530;13.304;2022-11-20T08:58:16;17.00;;;11.63;;
6723;SDS011;3399;52.530;13.304;2022-11-20T09:00:42;14.73;;;11.47;;
6723;SDS011;3399;52.530;13.304;2022-11-20T09:03:08;18.53;;;12.40;;
6723;SDS011;3399;52.530;13.304;2022-11-20T09:05:33;14.27;;;11.27;;
6723;SDS011;3399;52.530;13.304;2022-11-20T09:07:59;15.47;;;11.83;;
6723;SDS011;3399;52.530;13.304;2022-11-20T09:10:24;21.23;;;12.17;;
6723;SDS011;3399;52.530;13.304;2022-11-20T09:12:53;19.50;;;13.13;;
6723;SDS011;3399;52.530;13.304;2022-11-20T09:15:20;19.13;;;12.63;;
6723;SDS011;3399;52.530;13.304;2022-11-20T09:20:18;16.93;;;12.37;;
6723;SDS011;3399;52.530;13.304;2022-11-20T09:22:44;16.30;;;11.10;;
6723;SDS011;3399;52.530;13.304;2022-11-20T09:25:18;18.80;;;12.33;;
6723;SDS011;3399;52.530;13.304;2022-11-20T09:27:47;17.07;;;12.20;;
6723;SDS011;3399;52.530;13.304;2022-11-20T09:30:13;19.50;;;14.00;;
6723;SDS011;3399;52.530;13.304;2022-11-20T09:32:39;17.23;;;12.17;;
6723;SDS011;3399;52.530;13.304;2022-11-20T09:35:05;15.33;;;12.07;;
6723;SDS011;3399;52.530;13.304;2022-11-20T09:37:31;17.80;;;12.63;;
6723;SDS011;3399;52.530;13.304;2022-11-20T09:39:57;14.67;;;11.67;;
6723;SDS011;3399;52.530;13.304;2022-11-20T09:45:36;19.27;;;12.13;;
6723;SDS011;3399;52.530;13.304;2022-11-20T09:51:30;17.03;;;12.47;;
6723;SDS011;3399;52.530;13.304;2022-11-20T09:54:06;16.50;;;11.10;;
6723;SDS011;3399;52.530;13.304;2022-11-20T09:56:36;19.47;;;13.17;;
6723;SDS011;3399;52.530;13.304;2022-11-20T09:59:05;11.80;;;9.30;;
6723;SDS011;3399;52.530;13.304;2022-11-20T10:01:33;15.00;;;10.17;;
6723;SDS011;3399;52.530;13.304;2022-11-20T10:04:02;16.87;;;12.10;;
6723;SDS011;3399;52.530;13.304;2022-11-20T10:11:48;16.70;;;11.77;;
6723;SDS011;3399;52.530;13.304;2022-11-20T10:17:02;14.83;;;10.83;;
6723;SDS011;3399;52.530;13.304;2022-11-20T10:22:39;13.60;;;10.77;;
6723;SDS011;3399;52.530;13.304;2022-11-20T10:25:19;13.87;;;10.93;;
6723;SDS011;3399;52.530;13.304;2022-11-20T10:30:55;14.03;;;11.13;;
6723;SDS011;3399;52.530;13.304;2022-11-20T10:33:39;11.23;;;9.93;;
6723;SDS011;3399;52.530;13.304;2022-11-20T10:36:19;15.13;;;10.23;;
6723;SDS011;3399;52.530;13.304;2022-11-20T10:38:57;14.57;;;9.90;;
6723;SDS011;3399;52.530;13.304;2022-11-20T10:41:26;12.43;;;10.80;;
6723;SDS011;3399;52.530;13.304;2022-11-20T10:44:10;17.23;;;10.93;;
6723;SDS011;3399;52.530;13.304;2022-11-20T10:47:03;17.43;;;11.83;;
6723;SDS011;3399;52.530;13.304;2022-11-20T10:49:30;15.23;;;10.17;;
6723;SDS011;3399;52.530;13.304;2022-11-20T10:52:00;14.57;;;10.03;;
6723;SDS011;3399;52.530;13.304;2022-11-20T10:57:13;13.17;;;10.43;;
6723;SDS011;3399;52.530;13.304;2022-11-20T11:02:42;14.63;;;10.83;;
6723;SDS011;3399;52.530;13.304;2022-11-20T11:05:14;13.53;;;9.83;;
6723;SDS011;3399;52.530;13.304;2022-11-20T11:07:42;16.43;;;10.10;;
6723;SDS011;3399;52.530;13.304;2022-11-20T11:13:07;13.90;;;11.03;;
6723;SDS011;3399;52.530;13.304;2022-11-20T11:15:43;13.23;;;9.73;;
6723;SDS011;3399;52.530;13.304;2022-11-20T11:18:09;12.60;;;9.90;;
6723;SDS011;3399;52.530;13.304;2022-11-20T11:20:36;9.93;;;8.77;;
6723;SDS011;3399;52.530;13.304;2022-11-20T11:23:01;14.63;;;9.97;;
6723;SDS011;3399;52.530;13.304;2022-11-20T11:25:34;10.50;;;8.93;;
6723;SDS011;3399;52.530;13.304;2022-11-20T11:28:17;13.33;;;9.03;;
6723;SDS011;3399;52.530;13.304;2022-11-20T11:30:45;12.83;;;7.73;;
6723;SDS011;3399;52.530;13.304;2022-11-20T11:33:23;10.20;;;8.03;;
6723;SDS011;3399;52.530;13.304;2022-11-20T11:35:51;8.83;;;7.13;;
6723;SDS011;3399;52.530;13.304;2022-11-20T11:38:22;8.63;;;7.63;;
6723;SDS011;3399;52.530;13.304;2022-11-20T11:41:02;9.60;;;7.40;;
6723;SDS011;3399;52.530;13.304;2022-11-20T11:43:31;14.57;;;8.23;;
6723;SDS011;3399;52.530;13.304;2022-11-20T11:46:25;13.40;;;8.10;;
6723;SDS011;3399;52.530;13.304;2022-11-20T11:51:38;11.37;;;7.73;;
6723;SDS011;3399;52.530;13.304;2022-11-20T11:54:23;13.60;;;8.93;;
6723;SDS011;3399;52.530;13.304;2022-11-20T11:56:58;11.60;;;8.77;;
6723;SDS011;3399;52.530;13.304;2022-11-20T11:59:27;12.30;;;9.17;;
6723;SDS011;3399;52.530;13.304;2022-11-20T12:02:10;16.87;;;10.27;;
6723;SDS011;3399;52.530;13.304;2022-11-20T12:04:52;12.20;;;8.97;;
6723;SDS011;3399;52.530;13.304;2022-11-20T12:07:27;8.73;;;7.20;;
6723;SDS011;3399;52.530;13.304;2022-11-20T12:10:05;10.60;;;9.50;;
6723;SDS011;3399;52.530;13.304;2022-11-20T12:12:47;11.33;;;7.17;;
6723;SDS011;3399;52.530;13.304;2022-11-20T12:15:26;11.77;;;8.40;;
6723;SDS011;3399;52.530;13.304;2022-11-20T12:17:56;11.20;;;8.13;;
6723;SDS011;3399;52.530;13.304;2022-11-20T12:20:22;10.00;;;7.70;;
6723;SDS011;3399;52.530;13.304;2022-11-20T12:22:56;12.33;;;8.60;;
6723;SDS011;3399;52.530;13.304;2022-11-20T12:25:52;9.07;;;7.67;;
6723;SDS011;3399;52.530;13.304;2022-11-20T12:31:10;9.50;;;7.37;;
6723;SDS011;3399;52.530;13.304;2022-11-20T12:36:25;8.23;;;6.80;;
6723;SDS011;3399;52.530;13.304;2022-11-20T12:56:07;16.27;;;8.77;;
6723;SDS011;3399;52.530;13.304;2022-11-20T13:01:21;8.50;;;6.57;;
6723;SDS011;3399;52.530;13.304;2022-11-20T13:04:16;7.03;;;6.20;;
6723;SDS011;3399;52.530;13.304;2022-11-20T13:06:56;9.00;;;6.70;;
6723;SDS011;3399;52.530;13.304;2022-11-20T13:09:22;9.63;;;7.20;;
6723;SDS011;3399;52.530;13.304;2022-11-20T13:11:50;9.47;;;7.13;;
6723;SDS011;3399;52.530;13.304;2022-11-20T13:14:42;10.43;;;7.70;;
6723;SDS011;3399;52.530;13.304;2022-11-20T13:17:41;9.43;;;6.97;;
6723;SDS011;3399;52.530;13.304;2022-11-20T13:20:15;8.33;;;7.20;;
6723;SDS011;3399;52.530;13.304;2022-11-20T13:25:35;9.47;;;7.57;;
6723;SDS011;3399;52.530;13.304;2022-11-20T13:28:05;7.10;;;6.40;;
6723;SDS011;3399;52.530;13.304;2022-11-20T13:30:54;7.87;;;7.07;;
6723;SDS011;3399;52.530;13.304;2022-11-20T13:36:05;11.43;;;8.33;;
6723;SDS011;3399;52.530;13.304;2022-11-20T13:38:46;11.20;;;7.43;;
6723;SDS011;3399;52.530;13.304;2022-11-20T13:41:22;9.70;;;7.90;;
6723;SDS011;3399;52.530;13.304;2022-11-20T13:46:35;8.63;;;6.80;;
6723;SDS011;3399;52.530;13.304;2022-11-20T13:49:06;8.20;;;7.03;;
6723;SDS011;3399;52.530;13.304;2022-11-20T13:51:44;7.63;;;6.53;;
6723;SDS011;3399;52.530;13.304;2022-11-20T13:54:19;9.80;;;6.73;;
6723;SDS011;3399;52.530;13.304;2022-11-20T13:56:50;8.40;;;6.87;;
6723;SDS011;3399;52.530;13.304;2022-11-20T13:59:36;9.37;;;7.70;;
6723;SDS011;3399;52.530;13.304;2022-11-20T14:02:16;11.10;;;6.70;;
6723;SDS011;3399;52.530;13.304;2022-11-20T14:04:45;10.77;;;7.50;;
6723;SDS011;3399;52.530;13.304;2022-11-20T14:07:13;8.77;;;6.60;;
6723;SDS011;3399;52.530;13.304;2022-11-20T14:09:48;10.80;;;7.70;;
6723;SDS011;3399;52.530;13.304;2022-11-20T14:12:20;9.80;;;6.93;;
6723;SDS011;3399;52.530;13.304;2022-11-20T14:14:48;9.50;;;7.60;;
6723;SDS011;3399;52.530;13.304;2022-11-20T14:19:45;10.27;;;7.10;;
6723;SDS011;3399;52.530;13.304;2022-11-20T14:22:20;9.33;;;7.57;;
6723;SDS011;3399;52.530;13.304;2022-11-20T14:24:47;9.53;;;7.37;;
6723;SDS011;3399;52.530;13.304;2022-11-20T14:27:14;10.57;;;7.27;;
6723;SDS011;3399;52.530;13.304;2022-11-20T14:29:42;7.70;;;6.90;;
6723;SDS011;3399;52.530;13.304;2022-11-20T14:32:10;12.90;;;8.23;;
6723;SDS011;3399;52.530;13.304;2022-11-20T14:34:37;9.07;;;7.70;;
6723;SDS011;3399;52.530;13.304;2022-11-20T14:37:11;9.10;;;7.53;;
6723;SDS011;3399;52.530;13.304;2022-11-20T14:39:42;10.13;;;7.40;;
6723;SDS011;3399;52.530;13.304;2022-11-20T14:42:16;11.60;;;7.40;;
6723;SDS011;3399;52.530;13.304;2022-11-20T14:44:43;10.70;;;8.70;;
6723;SDS011;3399;52.530;13.304;2022-11-20T14:47:10;10.30;;;7.53;;
6723;SDS011;3399;52.530;13.304;2022-11-20T14:49:37;12.83;;;7.93;;
6723;SDS011;3399;52.530;13.304;2022-11-20T14:52:23;11.77;;;8.47;;
6723;SDS011;3399;52.530;13.304;2022-11-20T14:54:53;13.63;;;7.73;;
6723;SDS011;3399;52.530;13.304;2022-11-20T14:57:27;8.97;;;7.73;;
6723;SDS011;3399;52.530;13.304;2022-11-20T15:02:42;11.13;;;8.40;;
6723;SDS011;3399;52.530;13.304;2022-11-20T15:05:08;11.03;;;7.37;;
6723;SDS011;3399;52.530;13.304;2022-11-20T15:07:39;12.13;;;8.30;;
6723;SDS011;3399;52.530;13.304;2022-11-20T15:10:11;12.13;;;7.67;;
6723;SDS011;3399;52.530;13.304;2022-11-20T15:12:59;10.77;;;7.37;;
6723;SDS011;3399;52.530;13.304;2022-11-20T15:18:13;9.17;;;7.30;;
6723;SDS011;3399;52.530;13.304;2022-11-20T15:20:44;8.50;;;7.10;;
6723;SDS011;3399;52.530;13.304;2022-11-20T15:23:11;9.93;;;7.60;;
6723;SDS011;3399;52.530;13.304;2022-11-20T15:25:38;12.77;;;6.97;;
6723;SDS011;3399;52.530;13.304;2022-11-20T15:28:04;11.13;;;6.70;;
6723;SDS011;3399;52.530;13.304;2022-11-20T15:30:42;10.97;;;6.90;;
6723;SDS011;3399;52.530;13.304;2022-11-20T15:33:08;11.00;;;7.93;;
6723;SDS011;3399;52.530;13.304;2022-11-20T15:35:34;9.93;;;7.70;;
6723;SDS011;3399;52.530;13.304;2022-11-20T15:37:59;9.27;;;7.40;;
6723;SDS011;3399;52.530;13.304;2022-11-20T15:40:25;10.57;;;8.37;;
6723;SDS011;3399;52.530;13.304;2022-11-20T15:42:50;13.47;;;9.17;;
6723;SDS011;3399;52.530;13.304;2022-11-20T15:45:29;12.00;;;9.00;;
6723;SDS011;3399;52.530;13.304;2022-11-20T15:48:08;9.27;;;6.83;;
6723;SDS011;3399;52.530;13.304;2022-11-20T15:50:38;10.80;;;8.37;;
6723;SDS011;3399;52.530;13.304;2022-11-20T15:53:09;9.63;;;8.30;;
6723;SDS011;3399;52.530;13.304;2022-11-20T15:55:35;10.67;;;8.70;;
6723;SDS011;3399;52.530;13.304;2022-11-20T15:58:00;9.30;;;7.90;;
6723;SDS011;3399;52.530;13.304;2022-11-20T16:00:26;13.03;;;8.33;;
6723;SDS011;3399;52.530;13.304;2022-11-20T16:02:51;12.53;;;9.73;;
6723;SDS011;3399;52.530;13.304;2022-11-20T16:05:17;11.97;;;8.30;;
6723;SDS011;3399;52.530;13.304;2022-11-20T16:07:43;13.57;;;8.13;;
6723;SDS011;3399;52.530;13.304;2022-11-20T16:10:08;9.87;;;8.23;;